Time;durP1;ratioP1;P1;durP2;ratioP2;P2;SDS_P1;SDS_P2;PMS_P1;PMS_P2;Temp;Humidity;BMP_temperature;BMP_pressure;BME280_temperature;BME280_humidity;BME280_pressure;Samples;Min_cycle;Max_cycle;Signal;HPM_P1;HPM_P2
2022/07/24 00:01:24;;;;;;;12.35;11.25;;;18.90;99.00;;;;;;5002064;28;20045;-68
2022/07/24 00:03:49;;;;;;;13.38;11.93;;;18.90;99.10;;;;;;5002242;28;20395;-68
2022/07/24 00:06:15;;;;;;;13.57;12.18;;;18.90;99.10;;;;;;5007259;28;20145;-68
2022/07/24 00:08:41;;;;;;;14.40;12.80;;;19.10;99.20;;;;;;5004315;28;20029;-68
2022/07/24 00:11:06;;;;;;;13.88;12.50;;;18.90;99.20;;;;;;5007759;28;20116;-68
2022/07/24 00:13:32;;;;;;;15.70;14.10;;;18.90;99.30;;;;;;5006768;28;20033;-68
2022/07/24 00:15:57;;;;;;;14.27;13.00;;;18.80;99.40;;;;;;5008561;28;20110;-68
2022/07/24 00:18:23;;;;;;;13.48;12.15;;;18.80;99.40;;;;;;5007981;28;20065;-68
2022/07/24 00:20:48;;;;;;;14.80;13.18;;;18.80;99.50;;;;;;4999664;28;20114;-68
2022/07/24 00:23:14;;;;;;;15.02;12.63;;;18.80;99.60;;;;;;4986342;28;20413;-68
2022/07/24 00:25:39;;;;;;;12.85;11.07;;;18.50;99.50;;;;;;4999171;28;20449;-68
2022/07/24 00:28:05;;;;;;;12.43;11.07;;;18.70;99.70;;;;;;5000638;28;20108;-68
2022/07/24 00:30:30;;;;;;;12.75;11.38;;;18.60;99.90;;;;;;5002546;28;20030;-68
2022/07/24 00:32:56;;;;;;;11.90;10.80;;;18.70;99.80;;;;;;4997935;28;20565;-68
2022/07/24 00:35:21;;;;;;;12.70;11.50;;;18.70;99.90;;;;;;5004471;28;20040;-68
2022/07/24 00:37:47;;;;;;;11.88;10.05;;;18.60;99.90;;;;;;4996784;28;20105;-68
2022/07/24 00:40:15;;;;;;;13.27;11.93;;;18.60;99.90;;;;;;5003508;28;20037;-68
2022/07/24 00:42:41;;;;;;;13.63;12.32;;;18.50;99.90;;;;;;5002071;28;20471;-68
2022/07/24 00:45:07;;;;;;;14.50;13.13;;;18.60;99.90;;;;;;5006422;28;20045;-68
2022/07/24 00:47:33;;;;;;;12.75;11.68;;;18.60;99.90;;;;;;5007941;28;20045;-68
2022/07/24 00:49:59;;;;;;;16.05;12.20;;;18.50;99.90;;;;;;5005980;28;20396;-68
2022/07/24 00:52:25;;;;;;;13.90;12.52;;;18.50;99.90;;;;;;5009698;28;20028;-68
2022/07/24 00:54:50;;;;;;;13.05;11.68;;;18.50;99.90;;;;;;5005673;28;20486;-68
2022/07/24 00:57:16;;;;;;;12.70;11.52;;;18.40;99.90;;;;;;4995779;28;20022;-68
2022/07/24 00:59:42;;;;;;;13.90;11.05;;;18.40;99.90;;;;;;4997130;28;20222;-68
2022/07/24 01:02:07;;;;;;;14.77;12.02;;;18.40;99.90;;;;;;5002106;28;20466;-68
2022/07/24 01:04:33;;;;;;;12.68;10.77;;;18.50;99.90;;;;;;5001380;28;20041;-68
2022/07/24 01:06:58;;;;;;;13.02;11.63;;;18.40;99.90;;;;;;4999122;28;20033;-69
2022/07/24 01:09:24;;;;;;;12.15;10.95;;;18.60;99.90;;;;;;5000765;28;20018;-68
2022/07/24 01:11:51;;;;;;;14.50;11.55;;;18.40;99.90;;;;;;5004939;28;20027;-68
2022/07/24 01:14:17;;;;;;;12.27;11.07;;;18.40;99.90;;;;;;5006566;28;20045;-68
2022/07/24 01:16:43;;;;;;;11.68;10.10;;;18.30;99.90;;;;;;5006994;28;20127;-68
2022/07/24 01:19:08;;;;;;;11.82;10.63;;;18.30;99.90;;;;;;4995772;28;20093;-68
2022/07/24 01:21:34;;;;;;;11.88;10.77;;;18.30;99.90;;;;;;5001640;28;20101;-68
2022/07/24 01:24:00;;;;;;;12.93;11.73;;;18.30;99.90;;;;;;4998295;28;20125;-69
2022/07/24 01:26:25;;;;;;;14.50;12.35;;;18.30;99.90;;;;;;5001925;28;20025;-68
2022/07/24 01:28:51;;;;;;;12.70;11.15;;;18.20;99.90;;;;;;5003059;28;20091;-68
2022/07/24 01:31:17;;;;;;;11.93;10.82;;;18.20;99.90;;;;;;4982241;28;20033;-69
2022/07/24 01:33:42;;;;;;;12.77;11.52;;;18.30;99.90;;;;;;4990532;28;20045;-69
2022/07/24 01:36:08;;;;;;;13.48;12.05;;;18.30;99.90;;;;;;4989749;28;20382;-69
2022/07/24 01:38:33;;;;;;;12.27;11.07;;;18.20;99.90;;;;;;4993006;28;20682;-68
2022/07/24 01:40:59;;;;;;;13.75;12.43;;;18.70;99.90;;;;;;4994377;28;20075;-69
2022/07/24 01:43:24;;;;;;;13.70;12.18;;;18.10;99.90;;;;;;4993803;28;20401;-69
2022/07/24 01:45:50;;;;;;;12.90;11.70;;;18.10;99.90;;;;;;4993608;28;20553;-69
2022/07/24 01:48:16;;;;;;;13.05;11.75;;;18.00;99.90;;;;;;4993681;28;20019;-68
2022/07/24 01:50:42;;;;;;;12.98;11.70;;;18.00;99.90;;;;;;4994263;28;20077;-68
2022/07/24 01:53:07;;;;;;;12.40;11.13;;;17.90;99.90;;;;;;4994007;28;20022;-69
2022/07/24 01:55:33;;;;;;;12.05;10.43;;;18.00;99.90;;;;;;4994157;28;20097;-69
2022/07/24 01:57:58;;;;;;;11.80;10.60;;;17.90;99.90;;;;;;4996115;28;20533;-68
2022/07/24 02:00:24;;;;;;;11.93;10.82;;;18.00;99.90;;;;;;4994716;28;20550;-68
2022/07/24 02:02:50;;;;;;;13.52;12.13;;;18.00;99.90;;;;;;4993614;28;20025;-69
2022/07/24 02:05:15;;;;;;;12.15;10.95;;;17.90;99.90;;;;;;4995612;28;20030;-68
2022/07/24 02:07:42;;;;;;;12.13;11.02;;;18.30;99.90;;;;;;4993571;28;20019;-68
2022/07/24 02:10:09;;;;;;;12.23;10.95;;;18.10;99.90;;;;;;4994272;28;20031;-69
2022/07/24 02:12:35;;;;;;;11.82;10.75;;;18.00;99.90;;;;;;4994618;28;20045;-68
2022/07/24 02:15:00;;;;;;;13.50;12.07;;;18.00;99.90;;;;;;4994586;28;20468;-69
2022/07/24 02:17:26;;;;;;;12.60;11.50;;;17.90;99.90;;;;;;4994246;28;20038;-69
2022/07/24 02:19:51;;;;;;;12.57;11.32;;;17.70;99.90;;;;;;4993309;28;20034;-68
2022/07/24 02:22:17;;;;;;;11.55;10.40;;;19.40;99.90;;;;;;4995310;28;20485;-69
2022/07/24 02:24:42;;;;;;;12.52;10.88;;;17.80;99.90;;;;;;4992576;28;20058;-69
2022/07/24 02:27:08;;;;;;;13.90;11.02;;;17.70;99.90;;;;;;4993279;28;20027;-69
2022/07/24 02:29:33;;;;;;;11.95;10.85;;;17.80;99.90;;;;;;4993393;28;20053;-69
2022/07/24 02:32:00;;;;;;;13.40;12.05;;;18.60;99.90;;;;;;4993093;28;20396;-69
2022/07/24 02:34:25;;;;;;;16.05;12.25;;;17.90;99.90;;;;;;5002061;28;20048;-69
2022/07/24 02:36:51;;;;;;;11.13;10.13;;;17.60;99.90;;;;;;5002974;28;20022;-69
2022/07/24 02:39:16;;;;;;;11.77;10.68;;;17.70;99.90;;;;;;5007603;28;20088;-69
2022/07/24 02:41:42;;;;;;;12.07;10.88;;;17.50;99.90;;;;;;5012559;28;20026;-69
2022/07/24 02:44:07;;;;;;;11.68;10.57;;;17.60;99.90;;;;;;4995090;28;20434;-69
2022/07/24 02:46:33;;;;;;;14.00;11.55;;;17.50;99.90;;;;;;5006359;28;20034;-68
2022/07/24 02:48:59;;;;;;;11.63;10.52;;;17.40;99.90;;;;;;5004764;28;20057;-68
2022/07/24 02:51:24;;;;;;;14.23;12.65;;;19.30;99.90;;;;;;5012071;28;20026;-69
2022/07/24 02:53:50;;;;;;;12.25;11.13;;;17.20;99.90;;;;;;5011974;28;20034;-69
2022/07/24 02:56:15;;;;;;;14.68;11.82;;;17.40;99.90;;;;;;5012185;28;20026;-69
2022/07/24 02:58:41;;;;;;;13.43;11.10;;;17.40;99.90;;;;;;5012118;28;20045;-69
2022/07/24 03:01:06;;;;;;;13.25;10.85;;;17.30;99.90;;;;;;4999095;28;20030;-69
2022/07/24 03:03:32;;;;;;;14.80;10.93;;;17.40;99.90;;;;;;4997382;28;20427;-69
2022/07/24 03:05:57;;;;;;;12.85;11.55;;;17.30;99.90;;;;;;5003955;28;20030;-69
2022/07/24 03:08:23;;;;;;;12.38;11.13;;;17.30;99.90;;;;;;4997698;28;20558;-69
2022/07/24 03:10:48;;;;;;;14.45;11.98;;;17.20;99.90;;;;;;5002834;28;20395;-68
2022/07/24 03:13:15;;;;;;;12.15;10.45;;;17.20;99.90;;;;;;4992503;28;20036;-69
2022/07/24 03:15:40;;;;;;;13.77;10.90;;;17.10;99.90;;;;;;4999930;28;20137;-69
2022/07/24 03:18:06;;;;;;;12.27;10.60;;;17.10;99.90;;;;;;5012037;28;20152;-69
2022/07/24 03:20:32;;;;;;;11.63;10.45;;;17.20;99.90;;;;;;5006135;28;20132;-69
2022/07/24 03:22:57;;;;;;;11.75;10.60;;;17.20;99.90;;;;;;5003339;28;20606;-68
2022/07/24 03:25:23;;;;;;;14.00;12.55;;;17.30;99.90;;;;;;4987187;28;20145;-69
2022/07/24 03:27:49;;;;;;;14.27;11.23;;;18.10;99.90;;;;;;4982041;28;20084;-69
2022/07/24 03:30:15;;;;;;;13.52;11.88;;;17.20;99.90;;;;;;5007198;28;20037;-69
2022/07/24 03:32:41;;;;;;;16.40;12.55;;;17.30;99.90;;;;;;5006178;28;20190;-69
2022/07/24 03:35:07;;;;;;;12.23;10.75;;;17.20;99.90;;;;;;5011855;28;20053;-69
2022/07/24 03:37:32;;;;;;;14.20;11.68;;;17.20;99.90;;;;;;5010731;28;20137;-69
2022/07/24 03:39:58;;;;;;;13.07;11.65;;;17.10;99.90;;;;;;5011664;28;20129;-69
2022/07/24 03:42:24;;;;;;;13.25;11.52;;;17.00;99.90;;;;;;4997993;28;20109;-69
2022/07/24 03:44:49;;;;;;;11.15;10.18;;;16.90;99.90;;;;;;5011023;28;20061;-69
2022/07/24 03:47:15;;;;;;;13.23;11.82;;;16.90;99.90;;;;;;5011339;28;20040;-69
2022/07/24 03:49:40;;;;;;;13.32;11.50;;;17.10;99.90;;;;;;5011171;28;20037;-69
2022/07/24 03:52:07;;;;;;;12.60;11.15;;;16.70;99.90;;;;;;5010335;28;20029;-69
2022/07/24 03:54:33;;;;;;;12.25;11.05;;;16.90;99.90;;;;;;4997115;28;20023;-69
2022/07/24 03:56:58;;;;;;;14.73;13.30;;;16.70;99.90;;;;;;5011394;28;20022;-69
2022/07/24 03:59:24;;;;;;;12.80;11.55;;;16.70;99.90;;;;;;5011025;28;20041;-69
2022/07/24 04:01:49;;;;;;;12.13;11.02;;;16.90;99.90;;;;;;5009737;28;20091;-69
2022/07/24 04:04:15;;;;;;;16.45;11.48;;;16.60;99.90;;;;;;5002627;28;20065;-69
2022/07/24 04:06:40;;;;;;;15.57;13.55;;;16.60;99.90;;;;;;5001199;28;20049;-69
2022/07/24 04:09:06;;;;;;;14.13;12.57;;;16.80;99.90;;;;;;5007764;28;20040;-69
2022/07/24 04:11:32;;;;;;;14.68;13.05;;;16.70;99.90;;;;;;4999430;28;20034;-69
2022/07/24 04:13:58;;;;;;;19.63;14.45;;;16.80;99.90;;;;;;5004821;28;20481;-69
2022/07/24 04:16:24;;;;;;;16.38;14.77;;;16.90;99.90;;;;;;4997177;28;20060;-68
2022/07/24 04:18:49;;;;;;;15.18;13.65;;;16.90;99.90;;;;;;5001120;28;20495;-69
2022/07/24 04:21:16;;;;;;;17.40;14.27;;;17.00;99.90;;;;;;4998607;28;20025;-69
2022/07/24 04:23:41;;;;;;;15.70;14.10;;;16.70;99.90;;;;;;5006271;28;20073;-69
2022/07/24 04:26:07;;;;;;;17.63;15.55;;;16.90;99.90;;;;;;4998989;28;20058;-69
2022/07/24 04:28:32;;;;;;;16.50;14.27;;;17.00;99.90;;;;;;5007099;28;20100;-69
2022/07/24 04:30:58;;;;;;;17.40;15.20;;;16.80;99.90;;;;;;5005164;28;20045;-69
2022/07/24 04:33:24;;;;;;;16.25;14.65;;;17.00;99.90;;;;;;4996385;28;20033;-69
2022/07/24 04:35:49;;;;;;;17.33;15.23;;;16.90;99.90;;;;;;5006527;28;20037;-69
2022/07/24 04:38:15;;;;;;;17.02;15.23;;;16.80;99.90;;;;;;4979809;28;20096;-69
2022/07/24 04:40:41;;;;;;;16.40;14.80;;;17.00;99.90;;;;;;4980587;28;20058;-69
2022/07/24 04:43:07;;;;;;;16.55;14.95;;;17.00;99.90;;;;;;4991128;28;20522;-69
2022/07/24 04:45:32;;;;;;;19.50;15.95;;;17.10;99.90;;;;;;4992124;28;20034;-69
2022/07/24 04:47:58;;;;;;;15.73;14.15;;;16.90;99.90;;;;;;4994108;28;20025;-69
2022/07/24 04:50:23;;;;;;;17.45;15.77;;;17.00;99.90;;;;;;4991752;28;20416;-69
2022/07/24 04:52:49;;;;;;;17.52;15.00;;;17.00;99.90;;;;;;4992253;28;20026;-69
2022/07/24 04:55:15;;;;;;;18.27;15.68;;;17.20;99.90;;;;;;4991930;28;20101;-69
2022/07/24 04:57:40;;;;;;;17.95;16.20;;;17.10;99.90;;;;;;4990779;28;20026;-69
2022/07/24 05:00:09;;;;;;;19.38;17.38;;;17.10;99.90;;;;;;4992172;28;20034;-69
2022/07/24 05:02:35;;;;;;;19.52;17.52;;;17.30;99.90;;;;;;4991735;28;20026;-69
2022/07/24 05:05:01;;;;;;;18.52;16.63;;;17.30;99.90;;;;;;4991802;28;20018;-69
2022/07/24 05:07:27;;;;;;;18.83;16.95;;;17.30;99.90;;;;;;4991951;28;20472;-69
2022/07/24 05:09:52;;;;;;;17.85;16.13;;;17.20;99.90;;;;;;4991893;28;20030;-69
2022/07/24 05:12:18;;;;;;;20.90;18.70;;;17.40;99.90;;;;;;4991872;28;20023;-69
2022/07/24 05:14:43;;;;;;;19.58;17.65;;;17.40;99.90;;;;;;4990404;28;20041;-69
2022/07/24 05:17:09;;;;;;;19.65;17.67;;;17.40;99.90;;;;;;4990214;28;20097;-69
2022/07/24 05:19:34;;;;;;;20.70;18.50;;;17.70;99.90;;;;;;4991440;28;20038;-69
2022/07/24 05:22:00;;;;;;;20.63;18.20;;;17.70;99.90;;;;;;4990317;28;20022;-69
2022/07/24 05:24:26;;;;;;;19.65;17.65;;;17.70;99.90;;;;;;4991458;28;20069;-69
2022/07/24 05:26:52;;;;;;;20.27;18.33;;;17.70;99.90;;;;;;4993594;28;20025;-69
2022/07/24 05:29:17;;;;;;;22.63;20.33;;;17.80;99.90;;;;;;4991910;28;20031;-69
2022/07/24 05:31:43;;;;;;;21.08;19.08;;;17.80;99.90;;;;;;4995961;28;20034;-69
2022/07/24 05:34:09;;;;;;;22.80;20.40;;;18.30;99.90;;;;;;5003652;28;20032;-69
2022/07/24 05:36:35;;;;;;;24.65;22.35;;;18.00;99.90;;;;;;4993409;28;20029;-69
2022/07/24 05:39:01;;;;;;;27.23;21.80;;;18.10;99.90;;;;;;4996054;28;20034;-69
2022/07/24 05:41:26;;;;;;;24.88;20.92;;;18.10;99.90;;;;;;5009239;28;20681;-69
2022/07/24 05:43:53;;;;;;;23.17;20.77;;;18.20;99.90;;;;;;5010139;28;20076;-69
2022/07/24 05:46:19;;;;;;;26.02;21.58;;;18.50;99.90;;;;;;5009517;28;20348;-69
2022/07/24 05:48:45;;;;;;;25.58;23.08;;;18.50;99.90;;;;;;5009298;28;20068;-70
2022/07/24 05:51:11;;;;;;;27.02;24.38;;;18.40;99.90;;;;;;5009617;28;20446;-70
2022/07/24 05:53:36;;;;;;;25.55;22.98;;;18.60;99.90;;;;;;5002067;28;20121;-69
2022/07/24 05:56:02;;;;;;;28.27;23.38;;;18.30;99.90;;;;;;5003604;28;20040;-69
2022/07/24 05:58:27;;;;;;;24.65;22.13;;;18.70;99.90;;;;;;5009323;28;20068;-69
2022/07/24 06:00:53;;;;;;;24.88;22.15;;;18.80;99.90;;;;;;5009788;28;20062;-69
2022/07/24 06:03:18;;;;;;;25.40;22.23;;;18.90;99.90;;;;;;5008185;28;20037;-69
2022/07/24 06:05:44;;;;;;;25.50;22.73;;;18.80;99.90;;;;;;5009621;28;20037;-69
2022/07/24 06:08:09;;;;;;;25.55;22.85;;;18.90;99.90;;;;;;5009648;28;20030;-69
2022/07/24 06:10:35;;;;;;;24.73;22.30;;;19.00;99.90;;;;;;5009716;28;20044;-69
2022/07/24 06:13:01;;;;;;;23.77;21.52;;;19.00;99.90;;;;;;4998139;28;20038;-69
2022/07/24 06:15:26;;;;;;;23.88;20.92;;;19.10;99.90;;;;;;4993871;28;20041;-69
2022/07/24 06:17:52;;;;;;;23.40;20.77;;;19.10;99.90;;;;;;4993227;28;20038;-69
2022/07/24 06:20:17;;;;;;;25.35;22.55;;;19.10;99.90;;;;;;4997601;28;20030;-69
2022/07/24 06:22:44;;;;;;;31.77;22.20;;;19.40;99.90;;;;;;4995980;28;20558;-69
2022/07/24 06:25:11;;;;;;;24.63;21.17;;;19.30;99.90;;;;;;4993069;28;20056;-69
2022/07/24 06:27:57;;;;;;;21.80;18.20;;;19.40;99.90;;;;;;4993149;28;20041;-69
2022/07/24 06:30:24;;;;;;;21.65;19.25;;;19.50;99.90;;;;;;4971734;28;20472;-69
2022/07/24 06:32:53;;;;;;;21.70;19.40;;;19.50;99.90;;;;;;4997255;28;20030;-69
2022/07/24 06:35:19;;;;;;;21.58;18.45;;;19.60;99.90;;;;;;5012568;28;20414;-69
2022/07/24 06:37:45;;;;;;;19.70;17.67;;;19.60;99.90;;;;;;4984935;28;20034;-69
2022/07/24 06:40:11;;;;;;;19.75;17.63;;;19.60;99.90;;;;;;4994848;28;20034;-69
2022/07/24 06:42:37;;;;;;;18.60;16.80;;;19.80;99.90;;;;;;5011116;28;20041;-69
2022/07/24 06:45:03;;;;;;;17.83;15.98;;;19.90;99.90;;;;;;5000563;28;20108;-69
2022/07/24 06:47:28;;;;;;;18.25;16.48;;;19.90;99.90;;;;;;5011572;28;20029;-69
2022/07/24 06:49:54;;;;;;;19.85;17.83;;;20.00;99.90;;;;;;5012442;28;20085;-69
2022/07/24 06:52:20;;;;;;;17.58;15.88;;;20.00;99.90;;;;;;5006624;28;20034;-69
2022/07/24 06:54:46;;;;;;;16.33;14.75;;;20.00;99.90;;;;;;5001986;28;20026;-69
2022/07/24 06:57:11;;;;;;;15.68;14.10;;;21.40;99.90;;;;;;5007803;28;20058;-69
2022/07/24 06:59:37;;;;;;;15.98;14.45;;;20.30;99.90;;;;;;5002516;28;20076;-69
2022/07/24 07:02:02;;;;;;;13.63;12.23;;;20.40;99.90;;;;;;5003312;28;20030;-69
2022/07/24 07:04:28;;;;;;;11.32;10.15;;;21.70;99.90;;;;;;5007976;28;20030;-69
2022/07/24 07:06:54;;;;;;;10.90;9.80;;;20.40;99.90;;;;;;5008825;28;20064;-69
2022/07/24 07:09:19;;;;;;;11.32;10.20;;;21.40;99.90;;;;;;5009066;28;20422;-69
2022/07/24 07:11:45;;;;;;;13.02;9.70;;;20.70;99.50;;;;;;5007601;28;20031;-69
2022/07/24 07:14:10;;;;;;;12.05;9.25;;;20.60;99.30;;;;;;4999455;28;20037;-69
2022/07/24 07:16:36;;;;;;;9.32;8.43;;;20.70;99.10;;;;;;5000433;28;20066;-68
2022/07/24 07:19:01;;;;;;;9.90;8.90;;;21.50;99.10;;;;;;4996145;28;20449;-69
2022/07/24 07:21:27;;;;;;;9.27;7.90;;;20.90;98.70;;;;;;4997681;28;20034;-69
2022/07/24 07:23:53;;;;;;;9.82;8.85;;;21.00;98.50;;;;;;5003638;28;20050;-69
2022/07/24 07:26:19;;;;;;;9.73;7.78;;;21.10;98.40;;;;;;4995596;28;20423;-69
2022/07/24 07:28:44;;;;;;;8.32;7.53;;;21.00;98.20;;;;;;5005282;28;20149;-68
2022/07/24 07:31:10;;;;;;;10.38;7.57;;;21.20;98.10;;;;;;5005204;28;20109;-69
2022/07/24 07:33:35;;;;;;;8.40;7.50;;;21.30;97.90;;;;;;5009223;28;20131;-68
2022/07/24 07:36:01;;;;;;;8.63;7.22;;;21.30;97.70;;;;;;5003589;28;20029;-68
2022/07/24 07:38:26;;;;;;;9.02;6.45;;;21.40;97.40;;;;;;4991695;28;20104;-69
2022/07/24 07:40:52;;;;;;;8.38;6.05;;;22.70;97.40;;;;;;4994250;28;20038;-68
2022/07/24 07:43:17;;;;;;;6.25;5.65;;;21.50;96.70;;;;;;4998002;28;20422;-68
2022/07/24 07:45:43;;;;;;;6.30;4.57;;;22.70;96.60;;;;;;4991527;28;20073;-68
2022/07/24 07:48:09;;;;;;;6.50;4.28;;;22.90;96.30;;;;;;4995500;28;20014;-68
2022/07/24 07:50:34;;;;;;;4.57;4.18;;;23.20;96.00;;;;;;4991528;28;20382;-68
2022/07/24 07:53:00;;;;;;;6.32;5.55;;;22.60;95.60;;;;;;4998376;28;20033;-68
2022/07/24 07:55:26;;;;;;;8.70;4.88;;;22.10;95.00;;;;;;4992215;28;20026;-68
2022/07/24 07:57:51;;;;;;;5.00;3.85;;;22.20;94.80;;;;;;4995213;28;20038;-67
2022/07/24 08:00:19;;;;;;;8.38;5.03;;;22.40;94.70;;;;;;4991009;28;20041;-68
2022/07/24 08:02:44;;;;;;;4.53;4.13;;;22.40;94.40;;;;;;5000099;28;20129;-68
2022/07/24 08:05:10;;;;;;;5.63;5.05;;;22.50;94.20;;;;;;5010911;28;20474;-67
2022/07/24 08:07:36;;;;;;;4.88;3.35;;;22.60;94.00;;;;;;5011018;28;20053;-68
2022/07/24 08:10:02;;;;;;;5.60;3.90;;;22.50;93.60;;;;;;5011053;28;20104;-69
2022/07/24 08:12:27;;;;;;;5.63;3.78;;;22.80;93.40;;;;;;5003627;28;20154;-68
2022/07/24 08:14:53;;;;;;;4.88;3.83;;;22.90;93.20;;;;;;4991307;28;20471;-69
2022/07/24 08:17:18;;;;;;;5.28;4.00;;;22.90;93.10;;;;;;5002881;28;20026;-69
2022/07/24 08:19:45;;;;;;;4.35;3.92;;;23.00;93.00;;;;;;4993108;28;20042;-69
2022/07/24 08:22:11;;;;;;;3.85;3.40;;;23.10;92.70;;;;;;4994087;28;20014;-69
2022/07/24 08:24:36;;;;;;;5.28;3.20;;;23.40;92.50;;;;;;5001874;28;20064;-69
2022/07/24 08:27:02;;;;;;;6.78;3.97;;;23.20;92.30;;;;;;4984739;28;20029;-69
2022/07/24 08:29:28;;;;;;;4.32;3.42;;;23.30;92.10;;;;;;5003992;28;20104;-69
2022/07/24 08:31:54;;;;;;;4.13;3.72;;;23.50;92.00;;;;;;4991775;28;20049;-70
2022/07/24 08:34:19;;;;;;;4.82;4.32;;;23.50;92.10;;;;;;4991906;28;20041;-69
2022/07/24 08:36:45;;;;;;;3.97;3.33;;;24.60;91.90;;;;;;4989861;28;20030;-69
2022/07/24 08:39:15;;;;;;;4.18;3.83;;;23.60;91.50;;;;;;4990127;28;20030;-69
2022/07/24 08:41:41;;;;;;;5.10;3.60;;;24.60;91.90;;;;;;4978469;28;20034;-70
2022/07/24 08:44:07;;;;;;;4.88;4.10;;;23.70;91.40;;;;;;4984450;28;20037;-69
2022/07/24 08:46:36;;;;;;;4.68;4.10;;;23.80;91.10;;;;;;4990607;28;20019;-69
2022/07/24 08:49:03;;;;;;;3.90;3.55;;;23.80;91.10;;;;;;4991049;28;20053;-70
2022/07/24 08:51:35;;;;;;;4.93;4.15;;;23.90;91.00;;;;;;5003476;28;20022;-69
2022/07/24 08:54:02;;;;;;;5.13;4.35;;;23.90;91.10;;;;;;5003155;28;20040;-69
2022/07/24 08:56:28;;;;;;;3.72;3.42;;;24.00;90.70;;;;;;4999261;28;20379;-70
2022/07/24 08:58:54;;;;;;;3.83;3.40;;;25.30;91.10;;;;;;4995826;28;20026;-69
2022/07/24 09:01:19;;;;;;;4.03;3.25;;;24.30;90.40;;;;;;5000637;28;20022;-69
2022/07/24 09:03:46;;;;;;;3.45;2.85;;;24.30;90.10;;;;;;4992472;28;20083;-69
2022/07/24 09:06:14;;;;;;;2.97;2.78;;;24.30;90.20;;;;;;5009856;28;20540;-69
2022/07/24 09:08:56;;;;;;;2.65;2.45;;;24.40;89.80;;;;;;5009995;28;20034;-69
2022/07/24 09:11:21;;;;;;;4.00;2.70;;;24.20;89.50;;;;;;4983092;28;20112;-70
2022/07/24 09:16:36;;;;;;;3.72;3.22;;;25.10;89.60;;;;;;4978940;28;20057;-69
2022/07/24 09:19:07;;;;;;;4.07;3.15;;;24.50;88.70;;;;;;4990399;28;20125;-69
2022/07/24 09:21:35;;;;;;;3.97;2.83;;;24.50;89.00;;;;;;4989573;28;20487;-70
2022/07/24 09:24:15;;;;;;;3.13;2.83;;;24.80;88.70;;;;;;5002615;28;20057;-69
2022/07/24 09:26:48;;;;;;;4.82;2.63;;;24.60;88.30;;;;;;4993452;28;20026;-69
2022/07/24 09:29:15;;;;;;;3.85;3.08;;;24.70;86.30;;;;;;4998535;28;20056;-70
2022/07/24 09:32:01;;;;;;;3.20;2.60;;;24.60;87.50;;;;;;5006994;28;20033;-70
2022/07/24 09:34:29;;;;;;;4.95;2.88;;;24.60;89.10;;;;;;5009283;28;20024;-70
2022/07/24 09:37:05;;;;;;;4.60;3.80;;;24.80;87.70;;;;;;5010182;28;20382;-69
2022/07/24 09:39:33;;;;;;;5.32;2.60;;;24.90;85.30;;;;;;5005112;28;20069;-70
2022/07/24 09:42:00;;;;;;;3.05;2.75;;;24.90;87.30;;;;;;4990571;28;20018;-70
2022/07/24 09:44:26;;;;;;;3.05;2.67;;;24.80;87.30;;;;;;5005855;28;20475;-70
2022/07/24 09:46:56;;;;;;;3.17;2.83;;;25.00;86.70;;;;;;5001441;28;20022;-71
2022/07/24 09:49:23;;;;;;;2.72;2.50;;;25.10;87.20;;;;;;5005285;28;20489;-70
2022/07/24 09:52:14;;;;;;;2.70;2.00;;;25.00;86.70;;;;;;5013560;28;20080;-70
2022/07/24 09:54:41;;;;;;;3.10;2.80;;;25.10;85.40;;;;;;4999118;28;20498;-71
2022/07/24 09:57:19;;;;;;;3.50;2.28;;;25.30;86.60;;;;;;5003774;28;20116;-70
2022/07/24 09:59:49;;;;;;;2.30;2.10;;;25.30;86.90;;;;;;4999418;28;20046;-69
2022/07/24 10:02:17;;;;;;;3.03;2.75;;;25.20;86.50;;;;;;4995662;28;20455;-71
2022/07/24 10:04:44;;;;;;;2.60;2.40;;;25.40;86.00;;;;;;4993412;28;20782;-69
2022/07/24 10:07:11;;;;;;;3.50;3.20;;;25.40;85.90;;;;;;5000019;28;20053;-69
2022/07/24 10:09:41;;;;;;;3.35;3.05;;;26.10;85.90;;;;;;4993060;28;20095;-71
2022/07/24 10:12:16;;;;;;;2.50;2.28;;;25.40;86.30;;;;;;4993606;28;20041;-70
2022/07/24 10:14:44;;;;;;;2.67;2.47;;;25.50;83.90;;;;;;4993590;28;20029;-70
2022/07/24 10:17:11;;;;;;;3.30;2.50;;;25.50;85.20;;;;;;5000082;28;20030;-69
2022/07/24 10:19:51;;;;;;;2.72;2.50;;;25.70;85.10;;;;;;4993236;28;20056;-69
2022/07/24 10:22:22;;;;;;;2.53;2.25;;;26.00;85.50;;;;;;4993217;28;20054;-69
2022/07/24 10:24:56;;;;;;;3.45;2.50;;;25.80;84.50;;;;;;4999330;28;20554;-71
2022/07/24 10:27:28;;;;;;;3.03;2.17;;;25.90;84.20;;;;;;5002107;28;20026;-69
2022/07/24 10:29:57;;;;;;;2.20;2.00;;;26.90;85.10;;;;;;4998384;28;20422;-71
2022/07/24 10:32:24;;;;;;;3.20;1.60;;;25.80;84.00;;;;;;4994325;28;20105;-70
2022/07/24 10:35:13;;;;;;;3.25;2.30;;;25.90;83.60;;;;;;5012958;28;20378;-70
2022/07/24 10:38:16;;;;;;;2.28;1.90;;;26.00;83.40;;;;;;4983131;28;20037;-70
2022/07/24 10:40:50;;;;;;;2.45;2.13;;;26.30;81.80;;;;;;5012594;28;20025;-70
2022/07/24 10:43:17;;;;;;;2.65;2.17;;;26.10;82.90;;;;;;4995026;28;20030;-70
2022/07/24 10:45:53;;;;;;;2.88;2.35;;;26.20;82.20;;;;;;5012667;28;20022;-71
2022/07/24 10:48:21;;;;;;;2.33;2.13;;;26.30;80.10;;;;;;5006414;28;20018;-69
2022/07/24 10:51:03;;;;;;;2.58;2.15;;;26.70;82.50;;;;;;5005045;28;20065;-70
2022/07/24 10:53:42;;;;;;;3.47;2.00;;;26.20;82.10;;;;;;4986006;28;20026;-71
2022/07/24 10:56:20;;;;;;;2.60;1.88;;;26.10;81.70;;;;;;4998997;28;20030;-71
2022/07/24 10:58:57;;;;;;;4.22;2.10;;;26.30;80.10;;;;;;4990911;28;20491;-69
2022/07/24 11:01:31;;;;;;;5.18;2.30;;;26.30;79.70;;;;;;4992242;28;20026;-70
2022/07/24 11:03:58;;;;;;;5.88;2.83;;;26.30;81.60;;;;;;4992499;28;20026;-67
2022/07/24 11:06:44;;;;;;;2.30;2.10;;;26.30;81.00;;;;;;4992437;28;20026;-69
2022/07/24 11:09:10;;;;;;;2.70;2.08;;;26.20;82.00;;;;;;4992526;28;20081;-68
2022/07/24 11:11:52;;;;;;;4.60;1.92;;;26.30;80.40;;;;;;4992414;28;20042;-69
2022/07/24 11:14:22;;;;;;;2.05;1.95;;;26.30;78.90;;;;;;4992637;28;20464;-70
2022/07/24 11:16:48;;;;;;;2.70;2.50;;;26.30;80.20;;;;;;4992230;28;20053;-69
2022/07/24 11:19:16;;;;;;;2.10;1.90;;;26.50;80.00;;;;;;4992409;28;20042;-71
2022/07/24 11:21:44;;;;;;;2.10;1.90;;;26.40;80.20;;;;;;4991869;28;20022;-70
2022/07/24 11:24:25;;;;;;;3.13;2.28;;;26.50;80.80;;;;;;4986253;28;20047;-70
2022/07/24 11:27:16;;;;;;;2.40;2.20;;;26.40;78.70;;;;;;4991514;28;20596;-70
2022/07/24 11:29:41;;;;;;;2.33;2.13;;;26.40;78.00;;;;;;4991255;28;20030;-68
2022/07/24 11:32:14;;;;;;;2.85;2.42;;;26.40;79.40;;;;;;5004635;28;20109;-69
2022/07/24 11:34:48;;;;;;;3.55;2.22;;;26.40;80.10;;;;;;5011498;28;20034;-69
2022/07/24 11:37:14;;;;;;;3.72;2.30;;;26.50;78.20;;;;;;4996401;28;20595;-70
2022/07/24 11:39:43;;;;;;;2.40;2.20;;;26.50;79.30;;;;;;4985826;28;20121;-71
2022/07/24 11:42:11;;;;;;;3.15;2.17;;;26.50;79.40;;;;;;4993591;28;20479;-70
2022/07/24 11:44:43;;;;;;;2.55;2.00;;;26.80;79.70;;;;;;4995832;28;20025;-70
2022/07/24 11:47:13;;;;;;;1.92;1.75;;;26.80;79.90;;;;;;4994427;28;20028;-69
2022/07/24 11:49:40;;;;;;;1.95;1.83;;;26.70;79.30;;;;;;4993783;28;20068;-69
2022/07/24 11:52:06;;;;;;;2.22;1.85;;;26.80;79.40;;;;;;4991456;28;20020;-70
2022/07/24 11:54:32;;;;;;;2.55;2.17;;;27.90;79.60;;;;;;4993422;28;20034;-69
2022/07/24 11:56:57;;;;;;;2.88;2.22;;;26.60;78.50;;;;;;4991471;28;20066;-71
2022/07/24 11:59:30;;;;;;;2.90;2.08;;;26.60;78.70;;;;;;4991259;28;20042;-72
2022/07/24 12:02:09;;;;;;;3.88;1.92;;;27.40;80.20;;;;;;4986072;28;20064;-72
2022/07/24 12:04:37;;;;;;;1.83;1.65;;;26.70;77.50;;;;;;5008137;28;20030;-73
2022/07/24 12:07:06;;;;;;;3.05;2.40;;;26.80;78.90;;;;;;5011179;28;20022;-71
2022/07/24 12:09:31;;;;;;;3.30;1.95;;;27.60;79.80;;;;;;4999922;28;20026;-72
2022/07/24 12:11:57;;;;;;;2.40;2.20;;;27.20;79.30;;;;;;5005031;28;20029;-69
2022/07/24 12:14:23;;;;;;;3.05;2.15;;;26.90;78.40;;;;;;4989102;28;20027;-72
2022/07/24 12:16:55;;;;;;;2.35;1.73;;;27.00;78.30;;;;;;4991554;28;20034;-71
2022/07/24 12:19:23;;;;;;;3.50;2.23;;;27.00;79.40;;;;;;4991446;28;20030;-72
2022/07/24 12:21:51;;;;;;;3.40;2.20;;;27.60;79.70;;;;;;4991683;28;20030;-69
2022/07/24 12:24:18;;;;;;;3.45;2.20;;;27.10;79.30;;;;;;4991662;28;20042;-69
2022/07/24 12:26:56;;;;;;;2.05;1.90;;;27.20;78.90;;;;;;4991010;28;20022;-71
2022/07/24 12:29:23;;;;;;;7.47;2.30;;;28.00;79.70;;;;;;4989996;28;20085;-71
2022/07/24 12:31:52;;;;;;;3.20;1.85;;;28.10;78.90;;;;;;4990193;28;20578;-68
2022/07/24 12:34:17;;;;;;;2.38;1.80;;;27.20;78.40;;;;;;5003122;28;20458;-68
2022/07/24 12:36:44;;;;;;;2.17;1.98;;;27.30;78.10;;;;;;4998306;28;20101;-68
2022/07/24 12:39:11;;;;;;;2.50;1.80;;;28.10;78.60;;;;;;4995582;28;20089;-69